Terminal Aerodrome Forecast
Issued by NWS Mt. Holly, NJ

Current Version | Previous Version | Text Only | Print | Product List | Glossary On
Versions: 1 2 3 4 5 6 7 8 9 10 11 12 13 14 15 16 17 18 19 20
000
FTUS41 KPHI 270559
TAFACY
TAF
KACY 270559Z 2706/2806 00000KT P6SM SCT250
     FM271200 21004KT P6SM BKN035 BKN120
     FM271700 19008KT P6SM SCT030 BKN035
     FM272000 18010KT P6SM BKN035 BKN050 PROB30 2801/2804 4SM -SHRA
      OVC025
     FM280400 18006KT P6SM BKN040 BKN070 PROB30 2804/2806 4SM -SHRA
      OVC025=

USA.gov is the U.S. government's official web portal to all federal, state and local government web resources and services.